Huvudsida
METAR-TAF:

METAR-TAF

Flygplatser :

Osijeks flygplats

Osijek, Kroatien

latitud: 45-27N, longitud: 018-48E, höjd: 88 m

Aktuellt väderrapport

Denna rapport gjordes för 35 minuter sedan, klockan 23:00 UTC
Vind 12 kt från ost/sydost
Temperatur 12°C
Fuktighet 82%
Tryck 1011 hPa
Sikt 10 km eller mer
Inga moln under 1 500 m eller inga cumulonimbus

METAR: LDOS 152300Z 12012KT CAVOK 12/09 Q1011

Tid: 00:35 (23:35 UTC)

Väderprognos

Denna rapport gjordes för 6 timmar och 10 minuter sedan, klockan 17:25 UTC
Prognos gäller från 15 kl. 18 UTC till 16 kl. 18 UTC
Vind 12 kt från ost/sydost
Sikt 10 km eller mer
Inga moln under 1 500 m eller inga cumulonimbus

TAF: LDOS 151725Z 1518/1618 11012KT CAVOK TX18/1613Z TN11/1518Z

Aktuella väderrapporter och prognoser från 4000 flygplatser (METAR- och TAF-rapporter).

De tillgängliga stationerna syns som gula och röda prickar på kartan.

För musen över prickarna för att se namnen på stationerna.

Klicka sedan för att få väderrapporter och prognoser.

För att ändra kartan: Klicka på de gröna knapparna med ett svart kors på för att zooma in; den gröna knappen med ett streck på för att zooma ut; eller på de gröna pilarna för angränsande kartor.


METAR-TAF: